Time;durP1;ratioP1;P1;durP2;ratioP2;P2;SDS_P1;SDS_P2;PMS_P1;PMS_P2;Temp;Humidity;BMP_temperature;BMP_pressure;BME280_temperature;BME280_humidity;BME280_pressure;Samples;Min_cycle;Max_cycle;Signal;HPM_P1;HPM_P2
2022/02/28 00:00:34;;;;;;;0.60;0.60;;;;;;;-0.49;64.01;98152.53;29375;225;63005;-63
2022/02/28 00:01:14;;;;;;;0.60;0.60;;;;;;;-0.52;64.32;98152.91;29375;206;63015;-62
2022/02/28 00:01:48;;;;;;;0.60;0.60;;;;;;;-0.54;64.23;98150.44;29375;332;63004;-62
2022/02/28 00:02:19;;;;;;;0.60;0.60;;;;;;;-0.55;64.12;98142.63;29375;221;63009;-61
2022/02/28 00:02:51;;;;;;;0.60;0.60;;;;;;;-0.53;64.38;98152.09;29375;253;63004;-60
2022/02/28 00:03:22;;;;;;;0.60;0.60;;;;;;;-0.52;63.91;98151.06;29372;311;64009;-61
2022/02/28 00:03:56;;;;;;;0.60;0.60;;;;;;;-0.52;64.12;98148.41;29373;232;63004;-62
2022/02/28 00:04:27;;;;;;;0.60;0.60;;;;;;;-0.53;64.61;98140.59;29373;350;63008;-62
2022/02/28 00:04:58;;;;;;;0.60;0.60;;;;;;;-0.54;64.18;98153.09;29373;222;63005;-62
2022/02/28 00:05:30;;;;;;;0.60;0.60;;;;;;;-0.53;64.01;98145.94;29373;224;63015;-62
2022/02/28 00:06:02;;;;;;;0.60;0.60;;;;;;;-0.53;64.61;98156.59;29373;198;63005;-62
2022/02/28 00:06:33;;;;;;;0.60;0.60;;;;;;;-0.59;64.65;98144.03;29373;305;63009;-61
2022/02/28 00:07:05;;;;;;;0.60;0.60;;;;;;;-0.64;64.58;98152.59;29373;338;63005;-62
2022/02/28 00:07:36;;;;;;;0.70;0.70;;;;;;;-0.64;64.36;98159.75;29373;210;63009;-61
2022/02/28 00:08:08;;;;;;;0.60;0.60;;;;;;;-0.61;64.19;98149.53;29373;275;63005;-63
2022/02/28 00:08:39;;;;;;;0.60;0.60;;;;;;;-0.59;64.00;98152.84;29371;199;64009;-62
2022/02/28 00:09:10;;;;;;;0.57;0.57;;;;;;;-0.64;64.66;98157.09;29373;209;63004;-64
2022/02/28 00:09:41;;;;;;;0.60;0.60;;;;;;;-0.70;65.52;98156.03;29373;328;63009;-62
2022/02/28 00:10:12;;;;;;;0.70;0.70;;;;;;;-0.72;64.96;98161.56;29373;233;63004;-60
2022/02/28 00:10:44;;;;;;;0.60;0.60;;;;;;;-0.73;65.05;98154.59;29373;202;63009;-62
2022/02/28 00:11:16;;;;;;;0.60;0.60;;;;;;;-0.72;64.99;98158.91;29373;316;63004;-62
2022/02/28 00:11:47;;;;;;;0.68;0.68;;;;;;;-0.71;64.81;98155.22;29373;198;63008;-63
2022/02/28 00:12:18;;;;;;;0.60;0.60;;;;;;;-0.70;64.63;98156.03;29373;275;63005;-63
2022/02/28 00:12:52;;;;;;;0.60;0.60;;;;;;;-0.69;64.92;98153.16;29373;324;63013;-61
2022/02/28 00:13:26;;;;;;;0.70;0.70;;;;;;;-0.65;64.50;98158.13;29373;365;63005;-62
2022/02/28 00:13:58;;;;;;;0.60;0.60;;;;;;;-0.64;64.45;98149.09;29371;225;64009;-63
2022/02/28 00:14:29;;;;;;;0.60;0.60;;;;;;;-0.62;64.40;98147.06;29373;321;63005;-63
2022/02/28 00:15:03;;;;;;;0.60;0.60;;;;;;;-0.60;64.05;98148.53;29373;371;63009;-62
2022/02/28 00:15:34;;;;;;;0.60;0.60;;;;;;;-0.59;63.87;98152.03;29373;229;63005;-61
2022/02/28 00:16:06;;;;;;;0.60;0.60;;;;;;;-0.58;64.03;98143.00;29373;240;63009;-62
2022/02/28 00:16:40;;;;;;;0.60;0.60;;;;;;;-0.58;64.16;98146.50;29373;202;63004;-61
2022/02/28 00:17:11;;;;;;;0.60;0.60;;;;;;;-0.57;63.82;98150.00;29373;369;63009;-61
2022/02/28 00:17:43;;;;;;;0.60;0.60;;;;;;;-0.57;64.22;98144.66;29373;226;63004;-64
2022/02/28 00:18:14;;;;;;;0.60;0.60;;;;;;;-0.56;64.22;98146.31;29373;199;63009;-62
2022/02/28 00:18:45;;;;;;;0.60;0.60;;;;;;;-0.55;64.28;98138.12;29373;199;63004;-62
2022/02/28 00:19:19;;;;;;;0.60;0.60;;;;;;;-0.55;64.07;98147.97;29371;202;64008;-60
2022/02/28 00:19:51;;;;;;;0.60;0.60;;;;;;;-0.53;64.01;98143.25;29371;203;64005;-62
2022/02/28 00:20:22;;;;;;;0.60;0.60;;;;;;;-0.52;63.62;98150.25;29373;280;63009;-61
2022/02/28 00:20:53;;;;;;;0.60;0.60;;;;;;;-0.52;63.70;98139.59;29373;203;63005;-62
2022/02/28 00:21:24;;;;;;;0.60;0.60;;;;;;;-0.53;63.91;98146.75;29371;250;64009;-62
2022/02/28 00:21:56;;;;;;;0.60;0.60;;;;;;;-0.54;63.96;98139.78;29373;315;63005;-62
2022/02/28 00:22:28;;;;;;;0.60;0.60;;;;;;;-0.53;63.76;98146.75;29371;306;64009;-62
2022/02/28 00:22:59;;;;;;;0.60;0.60;;;;;;;-0.53;63.92;98137.94;29373;220;63005;-62
2022/02/28 00:23:34;;;;;;;0.60;0.60;;;;;;;-0.51;63.62;98149.22;29373;197;63009;-62
2022/02/28 00:24:06;;;;;;;0.60;0.60;;;;;;;-0.50;63.66;98145.56;29373;230;63004;-63
2022/02/28 00:24:37;;;;;;;0.60;0.60;;;;;;;-0.49;63.53;98136.53;29373;236;63009;-60
2022/02/28 00:25:10;;;;;;;0.65;0.65;;;;;;;-0.48;63.78;98140.84;29373;203;63004;-60
2022/02/28 00:25:41;;;;;;;0.60;0.60;;;;;;;-0.46;63.73;98144.16;29373;221;63009;-63
2022/02/28 00:26:12;;;;;;;0.60;0.60;;;;;;;-0.45;63.73;98143.13;29373;255;63004;-61
2022/02/28 00:26:44;;;;;;;0.60;0.60;;;;;;;-0.45;63.56;98143.13;29371;218;64008;-61
2022/02/28 00:27:15;;;;;;;0.60;0.60;;;;;;;-0.44;63.69;98139.47;29373;352;63004;-62
2022/02/28 00:27:50;;;;;;;0.60;0.60;;;;;;;-0.45;63.48;98138.63;29373;201;63009;-61
2022/02/28 00:28:21;;;;;;;0.60;0.60;;;;;;;-0.44;63.72;98136.78;29371;238;64005;-62
2022/02/28 00:28:52;;;;;;;0.60;0.60;;;;;;;-0.43;63.54;98135.78;29373;226;63009;-61
2022/02/28 00:29:24;;;;;;;0.60;0.60;;;;;;;-0.42;63.53;98145.41;29373;250;63005;-62
2022/02/28 00:29:55;;;;;;;0.60;0.60;;;;;;;-0.40;63.24;98146.88;29373;197;63009;-62
2022/02/28 00:30:27;;;;;;;0.60;0.60;;;;;;;-0.39;63.53;98139.72;29373;225;63005;-62
2022/02/28 00:30:58;;;;;;;0.60;0.60;;;;;;;-0.38;63.60;98144.03;29373;204;63009;-61
2022/02/28 00:31:30;;;;;;;0.60;0.60;;;;;;;-0.37;63.37;98140.34;29373;215;63005;-62
2022/02/28 00:32:02;;;;;;;0.60;0.60;;;;;;;-0.37;63.25;98141.16;29371;340;64009;-63
2022/02/28 00:32:34;;;;;;;0.60;0.60;;;;;;;-0.37;63.43;98146.50;29373;243;63004;-62
2022/02/28 00:33:07;;;;;;;2.22;2.17;;;;;;;-0.37;63.31;98135.84;29373;234;63009;-62
2022/02/28 00:33:38;;;;;;;0.60;0.60;;;;;;;-0.36;63.48;98145.47;29373;251;63004;-62
2022/02/28 00:34:09;;;;;;;0.60;0.60;;;;;;;-0.34;63.28;98145.25;29373;242;63008;-61
2022/02/28 00:34:41;;;;;;;0.60;0.60;;;;;;;-0.32;63.34;98142.41;29373;377;63004;-63
2022/02/28 00:35:12;;;;;;;0.62;0.62;;;;;;;-0.34;63.42;98140.75;29373;215;63009;-63
2022/02/28 00:35:44;;;;;;;0.60;0.60;;;;;;;-0.34;63.87;98145.25;29371;214;64005;-62
2022/02/28 00:36:16;;;;;;;0.60;0.60;;;;;;;-0.38;63.93;98144.03;29373;225;63018;-62
2022/02/28 00:36:47;;;;;;;0.60;0.60;;;;;;;-0.40;63.93;98140.72;29373;271;63005;-62
2022/02/28 00:37:19;;;;;;;0.60;0.60;;;;;;;-0.41;63.98;98147.91;29373;212;63009;-61
2022/02/28 00:37:50;;;;;;;0.60;0.60;;;;;;;-0.41;64.31;98141.75;29373;302;63005;-63
2022/02/28 00:38:22;;;;;;;0.60;0.60;;;;;;;-0.42;64.10;98142.75;29371;233;64022;-62
2022/02/28 00:38:54;;;;;;;0.60;0.60;;;;;;;-0.42;64.11;98137.41;29371;266;64005;-61
2022/02/28 00:39:25;;;;;;;0.60;0.60;;;;;;;-0.45;64.34;98138.63;29373;381;63009;-62
2022/02/28 00:39:57;;;;;;;0.60;0.60;;;;;;;-0.44;64.60;98144.78;29373;275;63004;-62
2022/02/28 00:40:32;;;;;;;0.60;0.60;;;;;;;-0.46;64.42;98142.31;29373;233;63009;-62
2022/02/28 00:41:04;;;;;;;0.60;0.60;;;;;;;-0.46;64.72;98144.16;29371;196;64004;-61
2022/02/28 00:41:35;;;;;;;0.70;0.70;;;;;;;-0.47;64.59;98145.16;29373;260;63009;-62
2022/02/28 00:42:10;;;;;;;0.60;0.60;;;;;;;-0.49;64.76;98141.87;29373;202;63004;-62
2022/02/28 00:42:41;;;;;;;0.60;0.60;;;;;;;-0.49;64.45;98147.19;29373;265;63009;-62
2022/02/28 00:43:16;;;;;;;0.60;0.60;;;;;;;-0.50;64.36;98140.22;29373;298;63005;-62
2022/02/28 00:43:47;;;;;;;0.60;0.60;;;;;;;-0.51;64.53;98143.91;29373;199;63027;-62
2022/02/28 00:44:22;;;;;;;0.60;0.60;;;;;;;-0.51;64.64;98138.56;29373;357;63005;-62
2022/02/28 00:44:53;;;;;;;0.60;0.60;;;;;;;-0.53;64.97;98140.59;29371;233;64009;-62
2022/02/28 00:45:25;;;;;;;0.60;0.60;;;;;;;-0.53;64.60;98140.59;29373;225;63005;-62
2022/02/28 00:45:58;;;;;;;0.60;0.60;;;;;;;-0.55;64.80;98142.63;29371;342;64009;-62
2022/02/28 00:46:30;;;;;;;0.60;0.60;;;;;;;-0.55;64.81;98143.47;29373;225;63008;-61
2022/02/28 00:47:03;;;;;;;0.60;0.60;;;;;;;-0.54;64.51;98138.94;29371;199;64009;-62
2022/02/28 00:47:36;;;;;;;0.60;0.60;;;;;;;-0.54;64.55;98145.09;29371;290;64004;-62
2022/02/28 00:48:08;;;;;;;0.60;0.60;;;;;;;-0.53;64.70;98140.59;29373;196;63019;-62
2022/02/28 00:48:40;;;;;;;0.60;0.60;;;;;;;-0.54;64.44;98145.09;29373;286;63004;-63
2022/02/28 00:49:12;;;;;;;0.60;0.60;;;;;;;-0.54;64.48;98145.09;29373;254;63008;-62
2022/02/28 00:49:45;;;;;;;0.60;0.60;;;;;;;-0.52;64.87;98147.59;29373;335;63009;-62
2022/02/28 00:50:19;;;;;;;0.70;0.70;;;;;;;-0.54;64.72;98139.78;29371;340;64009;-62
2022/02/28 00:50:50;;;;;;;0.60;0.60;;;;;;;-0.52;64.66;98144.91;29373;243;63007;-62
2022/02/28 00:51:22;;;;;;;0.60;0.60;;;;;;;-0.54;64.62;98145.09;29373;198;63009;-61
2022/02/28 00:51:54;;;;;;;0.60;0.60;;;;;;;-0.52;64.42;98147.59;29373;245;63005;-61
2022/02/28 00:52:26;;;;;;;0.60;0.60;;;;;;;-0.53;64.51;98140.59;29373;219;63015;-62
2022/02/28 00:53:01;;;;;;;0.60;0.60;;;;;;;-0.53;64.40;98151.25;29373;270;63005;-62
2022/02/28 00:53:35;;;;;;;0.80;0.80;;;;;;;-0.55;64.37;98140.78;29373;228;63009;-62
2022/02/28 00:54:08;;;;;;;0.60;0.60;;;;;;;-0.55;64.46;98137.31;29373;203;63009;-62
2022/02/28 00:54:41;;;;;;;0.60;0.60;;;;;;;-0.56;64.58;98140.97;29373;227;63009;-61
2022/02/28 00:55:13;;;;;;;0.60;0.60;;;;;;;-0.56;64.62;98135.66;29373;241;63004;-61
2022/02/28 00:55:45;;;;;;;0.60;0.60;;;;;;;-0.56;64.23;98135.66;29371;227;64009;-62
2022/02/28 00:56:21;;;;;;;0.60;0.60;;;;;;;-0.57;64.42;98139.34;29373;196;63004;-62
2022/02/28 00:56:54;;;;;;;0.60;0.60;;;;;;;-0.56;64.11;98140.97;29373;196;63008;-62
2022/02/28 00:57:26;;;;;;;0.60;0.60;;;;;;;-0.58;64.31;98143.00;29371;235;64004;-61
2022/02/28 00:57:59;;;;;;;0.60;0.60;;;;;;;-0.59;64.23;98126.19;29371;279;64009;-62
2022/02/28 00:58:34;;;;;;;0.60;0.60;;;;;;;-0.60;64.72;98137.03;29373;197;63005;-63
2022/02/28 00:59:06;;;;;;;0.60;0.60;;;;;;;-0.61;64.51;98133.56;29373;242;63009;-62
2022/02/28 00:59:39;;;;;;;0.60;0.60;;;;;;;-0.63;65.21;98137.44;29373;208;63005;-62
2022/02/28 01:00:14;;;;;;;0.60;0.60;;;;;;;-0.66;65.33;98138.63;29373;205;63009;-63
2022/02/28 01:00:49;;;;;;;0.60;0.60;;;;;;;-0.68;65.16;98138.81;29373;215;63005;-62
2022/02/28 01:01:24;;;;;;;0.60;0.60;;;;;;;-0.69;65.49;98139.84;29373;196;63009;-63
2022/02/28 01:01:58;;;;;;;0.60;0.60;;;;;;;-0.69;65.56;98137.16;29371;329;64004;-62
2022/02/28 01:02:30;;;;;;;0.60;0.60;;;;;;;-0.71;65.46;98139.22;29373;215;63019;-62
2022/02/28 01:03:03;;;;;;;0.60;0.60;;;;;;;-0.72;65.36;98142.09;29373;275;63004;-62
2022/02/28 01:03:35;;;;;;;0.60;0.60;;;;;;;-0.75;65.46;98143.28;29373;220;63008;-62
2022/02/28 01:04:10;;;;;;;0.60;0.60;;;;;;;-0.75;65.28;98143.28;29373;202;63009;-62
2022/02/28 01:04:41;;;;;;;0.60;0.60;;;;;;;-0.75;65.88;98148.63;29373;245;63026;-62
2022/02/28 01:05:14;;;;;;;0.60;0.60;;;;;;;-0.81;66.63;98154.69;29373;221;63005;-62
2022/02/28 01:05:45;;;;;;;0.60;0.60;;;;;;;-0.83;66.34;98148.75;29373;198;63009;-62
2022/02/28 01:06:20;;;;;;;0.60;0.60;;;;;;;-0.82;66.02;98149.56;29373;215;63005;-62
2022/02/28 01:06:51;;;;;;;0.60;0.60;;;;;;;-0.81;65.98;98148.53;29371;206;64009;-62
2022/02/28 01:07:23;;;;;;;0.60;0.60;;;;;;;-0.82;65.72;98147.72;29373;203;63005;-62
2022/02/28 01:07:54;;;;;;;0.88;0.88;;;;;;;-0.81;65.79;98144.03;29373;197;63019;-62
2022/02/28 01:08:26;;;;;;;0.60;0.60;;;;;;;-0.80;65.73;98139.53;29373;203;63005;-62
2022/02/28 01:08:57;;;;;;;0.60;0.60;;;;;;;-0.80;65.86;98145.69;29373;215;63009;-63
2022/02/28 01:09:29;;;;;;;0.60;0.60;;;;;;;-0.80;65.86;98145.69;29373;210;63004;-62
2022/02/28 01:10:00;;;;;;;0.60;0.60;;;;;;;-0.80;66.47;98152.88;29373;310;63009;-61
2022/02/28 01:10:32;;;;;;;0.60;0.60;;;;;;;-0.81;66.32;98145.88;29373;223;63004;-63
2022/02/28 01:11:04;;;;;;;0.60;0.60;;;;;;;-0.81;66.59;98144.03;29373;227;63008;-62
2022/02/28 01:11:37;;;;;;;0.60;0.60;;;;;;;-0.82;66.53;98150.38;29373;202;63004;-62
2022/02/28 01:12:09;;;;;;;0.60;0.60;;;;;;;-0.80;66.12;98152.88;29371;207;64009;-63
2022/02/28 01:12:40;;;;;;;0.60;0.60;;;;;;;-0.80;66.01;98151.03;29371;207;64005;-62
2022/02/28 01:13:11;;;;;;;0.60;0.60;;;;;;;-0.81;66.49;98148.53;29373;205;63009;-61
2022/02/28 01:13:42;;;;;;;0.50;0.50;;;;;;;-0.83;66.57;98151.41;29373;235;63005;-61
2022/02/28 01:14:14;;;;;;;0.60;0.60;;;;;;;-0.87;67.18;98152.78;29373;211;63009;-62
2022/02/28 01:14:48;;;;;;;0.60;0.60;;;;;;;-0.90;67.07;98147.00;29373;256;63005;-61
2022/02/28 01:15:22;;;;;;;0.57;0.57;;;;;;;-0.91;66.97;98148.84;29373;364;63009;-62
2022/02/28 01:15:53;;;;;;;0.60;0.60;;;;;;;-0.92;66.93;98163.19;29371;318;64005;-62
2022/02/28 01:16:25;;;;;;;0.60;0.60;;;;;;;-0.94;66.93;98151.88;29373;239;63009;-61
2022/02/28 01:16:56;;;;;;;0.60;0.60;;;;;;;-0.95;66.78;98152.91;29373;232;63004;-62
2022/02/28 01:17:27;;;;;;;0.70;0.70;;;;;;;-0.95;67.01;98155.56;29373;211;63009;-62
2022/02/28 01:17:59;;;;;;;0.70;0.70;;;;;;;-0.94;66.93;98153.72;29371;202;64004;-63
2022/02/28 01:18:34;;;;;;;0.60;0.60;;;;;;;-0.94;66.67;98148.41;29373;205;63009;-61
2022/02/28 01:19:05;;;;;;;0.60;0.60;;;;;;;-0.93;66.30;98161.53;29373;202;63004;-61
2022/02/28 01:19:40;;;;;;;0.60;0.60;;;;;;;-0.93;66.46;98145.56;29373;234;63009;-62
2022/02/28 01:20:13;;;;;;;0.60;0.60;;;;;;;-0.91;66.55;98154.19;29373;222;63005;-62
2022/02/28 01:20:44;;;;;;;0.60;0.60;;;;;;;-0.92;66.27;98152.53;29373;243;63009;-62
2022/02/28 01:21:17;;;;;;;0.60;0.60;;;;;;;-0.92;66.28;98157.84;29373;338;63005;-62
2022/02/28 01:21:49;;;;;;;0.60;0.60;;;;;;;-0.92;66.27;98152.53;29373;277;63009;-63
2022/02/28 01:22:23;;;;;;;0.60;0.60;;;;;;;-0.91;66.58;98148.84;29371;225;64005;-62
2022/02/28 01:22:54;;;;;;;0.60;0.60;;;;;;;-0.92;66.53;98151.69;29373;198;63009;-62
2022/02/28 01:23:26;;;;;;;0.60;0.60;;;;;;;-0.93;66.36;98150.88;29373;279;63005;-62
2022/02/28 01:23:57;;;;;;;0.60;0.60;;;;;;;-0.92;66.32;98149.87;29373;216;63014;-62
2022/02/28 01:24:29;;;;;;;0.60;0.60;;;;;;;-0.90;66.34;98147.84;29373;238;63004;-62
2022/02/28 01:25:00;;;;;;;0.60;0.60;;;;;;;-0.90;66.10;98150.50;29373;202;63009;-62
2022/02/28 01:25:31;;;;;;;0.60;0.60;;;;;;;-0.90;66.18;98155.00;29373;197;63004;-62
2022/02/28 01:26:03;;;;;;;0.60;0.60;;;;;;;-0.90;66.43;98150.50;29373;202;63009;-63
2022/02/28 01:26:35;;;;;;;0.60;0.60;;;;;;;-0.91;66.41;98143.53;29373;202;63009;-61
2022/02/28 01:27:08;;;;;;;0.60;0.60;;;;;;;-0.89;65.94;98146.81;29371;248;64009;-62
2022/02/28 01:27:39;;;;;;;0.60;0.60;;;;;;;-0.89;66.21;98141.50;29373;229;63005;-62
2022/02/28 01:28:14;;;;;;;0.60;0.60;;;;;;;-0.90;66.05;98145.16;29371;367;64009;-62
2022/02/28 01:28:45;;;;;;;0.60;0.60;;;;;;;-0.90;65.96;98147.84;29373;325;63005;-61
2022/02/28 01:29:16;;;;;;;0.60;0.60;;;;;;;-0.89;66.06;98141.50;29373;245;63009;-62
2022/02/28 01:29:48;;;;;;;0.60;0.60;;;;;;;-0.89;65.94;98141.50;29373;315;63005;-62
2022/02/28 01:30:20;;;;;;;0.60;0.60;;;;;;;-0.90;66.23;98150.50;29373;305;63009;-62
2022/02/28 01:30:51;;;;;;;0.60;0.60;;;;;;;-0.90;65.93;98144.34;29373;291;63005;-61
2022/02/28 01:31:23;;;;;;;0.60;0.60;;;;;;;-0.90;66.13;98147.00;29373;207;63009;-62
2022/02/28 01:31:54;;;;;;;0.60;0.60;;;;;;;-0.89;66.18;98146.00;29373;205;63000;-63
2022/02/28 01:32:29;;;;;;;0.60;0.60;;;;;;;-0.87;65.90;98142.13;29373;208;63009;-62
2022/02/28 01:33:00;;;;;;;0.60;0.60;;;;;;;-0.86;65.86;98140.28;29371;212;64004;-61
2022/02/28 01:33:33;;;;;;;0.60;0.60;;;;;;;-0.87;65.80;98143.97;29373;275;63009;-61
2022/02/28 01:34:04;;;;;;;0.60;0.60;;;;;;;-0.86;65.73;98142.97;29373;260;63004;-62
2022/02/28 01:34:38;;;;;;;0.60;0.60;;;;;;;-0.87;65.79;98136.81;29373;243;63009;-62
2022/02/28 01:35:11;;;;;;;0.60;0.60;;;;;;;-0.87;65.52;98139.47;29373;308;63005;-62
2022/02/28 01:35:43;;;;;;;0.60;0.60;;;;;;;-0.87;65.46;98139.47;29371;314;64009;-62
2022/02/28 01:36:14;;;;;;;0.60;0.60;;;;;;;-0.86;65.32;98129.62;29373;240;63005;-62
2022/02/28 01:36:49;;;;;;;0.60;0.60;;;;;;;-0.87;65.60;98131.47;29373;221;63009;-62
2022/02/28 01:37:20;;;;;;;0.60;0.60;;;;;;;-0.86;65.68;98138.44;29373;306;63005;-62
2022/02/28 01:37:51;;;;;;;0.60;0.60;;;;;;;-0.86;65.40;98135.78;29373;202;63009;-62
2022/02/28 01:38:23;;;;;;;0.60;0.60;;;;;;;-0.86;65.60;98133.13;29371;345;64005;-62
2022/02/28 01:38:54;;;;;;;0.60;0.60;;;;;;;-0.86;65.64;98130.47;29373;247;63009;-62
2022/02/28 01:39:28;;;;;;;0.60;0.60;;;;;;;-0.84;65.18;98139.09;29373;212;63004;-61
2022/02/28 01:40:00;;;;;;;0.60;0.60;;;;;;;-0.84;65.56;98138.25;29373;225;63009;-62
2022/02/28 01:40:31;;;;;;;0.60;0.60;;;;;;;-0.87;65.44;98134.13;29373;322;63004;-62
2022/02/28 01:41:03;;;;;;;0.60;0.60;;;;;;;-0.88;65.37;98132.50;29371;306;64022;-62
2022/02/28 01:41:34;;;;;;;0.60;0.60;;;;;;;-0.88;65.40;98127.16;29373;313;63004;-62
2022/02/28 01:42:06;;;;;;;0.60;0.60;;;;;;;-0.88;65.67;98132.50;29373;339;63009;-63
2022/02/28 01:42:38;;;;;;;0.60;0.60;;;;;;;-0.87;65.84;98133.31;29373;207;63005;-61
2022/02/28 01:43:09;;;;;;;0.60;0.60;;;;;;;-0.87;65.49;98141.31;29371;328;64009;-63
2022/02/28 01:43:41;;;;;;;0.60;0.60;;;;;;;-0.87;65.79;98128.81;29371;199;64005;-63
2022/02/28 01:44:12;;;;;;;0.60;0.60;;;;;;;-0.88;65.71;98137.81;29373;204;63009;-64
2022/02/28 01:44:43;;;;;;;0.60;0.60;;;;;;;-0.89;65.64;98133.50;29373;273;63005;-61
2022/02/28 01:45:22;;;;;;;0.60;0.60;;;;;;;-0.90;65.84;98139.84;29373;327;63009;-61
2022/02/28 01:45:54;;;;;;;0.60;0.60;;;;;;;-0.88;65.61;98132.50;29373;286;63005;-61
2022/02/28 01:46:25;;;;;;;0.60;0.60;;;;;;;-0.88;65.73;98137.81;29373;206;63009;-62
2022/02/28 01:46:59;;;;;;;0.60;0.60;;;;;;;-0.89;65.51;98138.84;29373;224;63004;-62
2022/02/28 01:47:31;;;;;;;0.60;0.60;;;;;;;-0.88;65.49;98137.81;29371;288;64009;-62
2022/02/28 01:48:03;;;;;;;0.60;0.60;;;;;;;-0.88;65.70;98140.47;29373;334;63010;-61
2022/02/28 01:48:35;;;;;;;0.60;0.60;;;;;;;-0.89;65.91;98141.50;29371;240;64009;-61
2022/02/28 01:49:08;;;;;;;0.60;0.60;;;;;;;-0.88;65.60;98139.66;29373;209;63004;-62
2022/02/28 01:49:39;;;;;;;0.60;0.60;;;;;;;-0.87;65.88;98136.81;29373;281;63027;-62
2022/02/28 01:50:10;;;;;;;0.60;0.60;;;;;;;-0.88;65.96;98134.31;29371;306;64005;-61
2022/02/28 01:50:42;;;;;;;0.60;0.60;;;;;;;-0.88;65.97;98132.50;29373;197;63009;-60
2022/02/28 01:51:15;;;;;;;0.60;0.60;;;;;;;-0.89;66.07;98138.84;29373;305;63005;-62
2022/02/28 01:51:49;;;;;;;0.60;0.60;;;;;;;-0.89;65.96;98136.16;29373;238;63025;-62
2022/02/28 01:52:24;;;;;;;0.60;0.60;;;;;;;-0.89;65.75;98136.16;29373;237;63005;-61
2022/02/28 01:52:56;;;;;;;0.60;0.60;;;;;;;-0.88;65.71;98127.16;29371;342;64009;-60
2022/02/28 01:53:28;;;;;;;0.60;0.60;;;;;;;-0.87;65.39;98134.13;29373;248;63005;-60
2022/02/28 01:53:59;;;;;;;0.60;0.60;;;;;;;-0.88;65.61;98135.16;29373;218;63009;-61
2022/02/28 01:54:33;;;;;;;0.60;0.60;;;;;;;-0.87;65.60;98130.66;29373;225;63009;-62
2022/02/28 01:55:07;;;;;;;0.60;0.60;;;;;;;-0.87;65.48;98123.47;29373;208;63004;-63
2022/02/28 01:55:38;;;;;;;0.60;0.60;;;;;;;-0.86;65.24;98133.13;29373;202;63004;-60
2022/02/28 01:56:09;;;;;;;0.60;0.60;;;;;;;-0.86;65.31;98130.47;29373;215;63009;-62
2022/02/28 01:56:41;;;;;;;0.60;0.60;;;;;;;-0.89;65.24;98125.50;29373;331;63004;-61
2022/02/28 01:57:13;;;;;;;0.60;0.60;;;;;;;-0.85;65.20;98126.78;29373;299;63009;-61
2022/02/28 01:57:45;;;;;;;0.60;0.60;;;;;;;-0.85;65.42;98126.78;29371;215;64005;-61
2022/02/28 01:58:16;;;;;;;0.60;0.60;;;;;;;-0.83;65.29;98118.59;29373;274;63009;-60
2022/02/28 01:58:47;;;;;;;0.60;0.60;;;;;;;-0.82;65.00;98125.56;29373;221;63005;-61
2022/02/28 01:59:19;;;;;;;0.60;0.60;;;;;;;-0.81;64.96;98127.22;29371;228;64009;-62
2022/02/28 01:59:51;;;;;;;0.60;0.60;;;;;;;-0.82;64.92;98115.75;29373;216;63012;-64
2022/02/28 02:00:26;;;;;;;0.60;0.60;;;;;;;-0.82;65.01;98125.56;29373;211;63009;-64
2022/02/28 02:00:58;;;;;;;0.60;0.60;;;;;;;-0.84;65.13;98115.09;29371;218;64004;-62
2022/02/28 02:01:29;;;;;;;0.60;0.60;;;;;;;-0.85;65.07;98121.44;29373;229;63009;-63
2022/02/28 02:02:01;;;;;;;0.60;0.60;;;;;;;-0.87;65.52;98110.16;29373;282;63004;-61
2022/02/28 02:02:33;;;;;;;0.60;0.60;;;;;;;-0.88;65.35;98121.00;29373;196;63027;-61
2022/02/28 02:03:06;;;;;;;0.60;0.60;;;;;;;-0.89;65.45;98120.19;29373;331;63004;-61
2022/02/28 02:03:38;;;;;;;0.60;0.60;;;;;;;-0.90;65.65;98123.84;29371;207;64008;-61
2022/02/28 02:04:09;;;;;;;0.60;0.60;;;;;;;-0.89;65.90;98114.84;29373;219;63005;-62
2022/02/28 02:04:41;;;;;;;0.60;0.60;;;;;;;-0.89;65.48;98114.84;29373;228;63009;-62
2022/02/28 02:05:12;;;;;;;0.60;0.60;;;;;;;-0.88;65.54;98121.84;29373;322;63005;-64
2022/02/28 02:05:48;;;;;;;0.60;0.60;;;;;;;-0.86;65.54;98114.47;29373;216;63009;-62
2022/02/28 02:06:21;;;;;;;0.60;0.60;;;;;;;-0.85;65.51;98116.13;29373;286;63005;-62
2022/02/28 02:06:54;;;;;;;0.60;0.60;;;;;;;-0.85;65.66;98113.47;29373;206;63009;-61
2022/02/28 02:07:25;;;;;;;0.60;0.60;;;;;;;-0.84;65.32;98112.44;29373;342;63005;-61
2022/02/28 02:07:58;;;;;;;0.60;0.60;;;;;;;-0.86;65.41;98114.47;29373;302;63025;-61
2022/02/28 02:08:30;;;;;;;0.60;0.60;;;;;;;-0.88;66.06;98116.50;29371;379;64004;-60
2022/02/28 02:09:05;;;;;;;0.60;0.60;;;;;;;-0.90;66.12;98115.88;29373;224;63009;-62
2022/02/28 02:09:38;;;;;;;0.60;0.60;;;;;;;-0.92;66.18;98117.87;29373;331;63004;-61
2022/02/28 02:10:12;;;;;;;0.60;0.60;;;;;;;-0.91;66.09;98113.38;29373;221;63009;-60
2022/02/28 02:10:44;;;;;;;0.60;0.60;;;;;;;-0.89;65.89;98122.84;29373;231;63004;-60
2022/02/28 02:11:16;;;;;;;0.60;0.60;;;;;;;-0.91;66.01;98116.88;29373;296;63008;-61
2022/02/28 02:11:49;;;;;;;0.60;0.60;;;;;;;-0.91;66.05;98119.53;29373;272;63005;-62
2022/02/28 02:12:21;;;;;;;0.60;0.60;;;;;;;-0.93;66.33;98118.91;29373;204;63009;-61
2022/02/28 02:12:53;;;;;;;0.60;0.60;;;;;;;-0.95;66.45;98115.59;29373;227;63005;-62
2022/02/28 02:13:27;;;;;;;0.60;0.60;;;;;;;-0.97;66.92;98122.97;29371;363;64009;-63
2022/02/28 02:13:59;;;;;;;0.60;0.60;;;;;;;-1.01;67.06;98122.50;29371;216;64005;-61
2022/02/28 02:14:33;;;;;;;0.80;0.80;;;;;;;-1.04;67.48;98116.75;29373;214;63009;-61
2022/02/28 02:15:10;;;;;;;0.60;0.60;;;;;;;-1.11;68.15;98127.34;29373;197;63005;-61
2022/02/28 02:15:42;;;;;;;0.70;0.70;;;;;;;-1.18;67.90;98122.94;29373;198;63007;-61
2022/02/28 02:16:15;;;;;;;0.62;0.62;;;;;;;-1.19;67.79;98124.78;29373;202;63015;-63
2022/02/28 02:16:46;;;;;;;0.60;0.60;;;;;;;-1.18;67.52;98122.94;29373;218;63009;-61
2022/02/28 02:17:20;;;;;;;0.60;0.60;;;;;;;-1.16;67.41;98126.25;29371;228;64004;-61
2022/02/28 02:17:54;;;;;;;0.60;0.60;;;;;;;-1.15;67.57;98119.91;29373;213;63009;-60
2022/02/28 02:18:25;;;;;;;0.60;0.60;;;;;;;-1.17;67.97;98121.94;29373;255;63004;-61
2022/02/28 02:18:56;;;;;;;0.60;0.60;;;;;;;-1.22;68.22;98121.69;29371;210;64023;-63
2022/02/28 02:19:27;;;;;;;0.60;0.60;;;;;;;-1.27;69.07;98124.06;29373;203;63005;-62
2022/02/28 02:20:04;;;;;;;0.60;0.60;;;;;;;-1.37;69.61;98125.19;29395;218;63009;-62
2022/02/28 02:20:38;;;;;;;0.60;0.60;;;;;;;-1.43;69.69;98128.63;29373;204;63005;-61
2022/02/28 02:21:09;;;;;;;0.60;0.60;;;;;;;-1.45;69.37;98124.50;29373;233;63009;-61
2022/02/28 02:21:41;;;;;;;0.60;0.60;;;;;;;-1.45;69.00;98120.00;29373;222;63005;-62
2022/02/28 02:22:20;;;;;;;0.60;0.60;;;;;;;-1.43;69.27;98119.81;29373;225;63009;-62
2022/02/28 02:22:59;;;;;;;0.60;0.60;;;;;;;-1.43;69.03;98123.31;29373;222;63005;-61
2022/02/28 02:23:32;;;;;;;0.60;0.60;;;;;;;-1.40;68.73;98124.75;29373;212;63009;-61
2022/02/28 02:24:05;;;;;;;0.60;0.60;;;;;;;-1.40;68.83;98122.09;29371;196;64004;-61
2022/02/28 02:24:36;;;;;;;6.43;6.07;;;;;;;-1.40;68.83;98120.25;29373;254;63009;-62
2022/02/28 02:25:08;;;;;;;0.60;0.60;;;;;;;-1.39;68.81;98121.88;29373;263;63004;-62
2022/02/28 02:25:41;;;;;;;0.60;0.60;;;;;;;-1.39;69.36;98121.09;29373;213;63008;-62
2022/02/28 02:26:14;;;;;;;0.60;0.60;;;;;;;-1.44;70.04;98126.97;29373;208;63004;-62
2022/02/28 02:26:45;;;;;;;0.60;0.60;;;;;;;-1.47;70.26;98130.00;29373;230;63009;-61
2022/02/28 02:27:17;;;;;;;0.60;0.60;;;;;;;-1.47;70.08;98122.03;29373;208;63005;-61
2022/02/28 02:27:49;;;;;;;0.60;0.60;;;;;;;-1.47;69.63;98124.69;29373;260;63009;-61
2022/02/28 02:28:21;;;;;;;0.60;0.60;;;;;;;-1.45;69.71;98119.16;29373;213;63005;-61
2022/02/28 02:28:52;;;;;;;0.60;0.60;;;;;;;-1.45;70.02;98124.50;29373;343;63009;-62
2022/02/28 02:29:23;;;;;;;0.60;0.60;;;;;;;-1.45;70.29;98119.16;29371;245;64005;-62
2022/02/28 02:29:55;;;;;;;0.60;0.60;;;;;;;-1.48;70.35;98120.38;29373;208;63009;-61
2022/02/28 02:30:27;;;;;;;0.60;0.60;;;;;;;-1.50;70.56;98127.72;29373;199;63005;-61
2022/02/28 02:31:02;;;;;;;0.60;0.60;;;;;;;-1.51;70.80;98122.56;29373;218;63009;-61
2022/02/28 02:31:33;;;;;;;0.60;0.60;;;;;;;-1.52;70.46;98121.75;29373;223;63004;-62
2022/02/28 02:32:17;;;;;;;0.60;0.60;;;;;;;-1.51;70.47;98125.25;29373;204;63009;-62
2022/02/28 02:32:49;;;;;;;0.60;0.60;;;;;;;-1.51;70.22;98130.56;29373;210;63004;-62
2022/02/28 02:33:26;;;;;;;0.70;0.70;;;;;;;-1.52;70.28;98121.75;29373;221;63008;-60
2022/02/28 02:33:59;;;;;;;0.60;0.60;;;;;;;-1.51;69.91;98128.72;29373;214;63004;-61
2022/02/28 02:34:30;;;;;;;0.80;0.80;;;;;;;-1.50;69.50;98127.72;29371;197;64009;-62